sensor_id;sensor_type;location;lat;lon;timestamp;temperature;humidity
18950;DHT22;9608;49.288;8.130;2023-03-01T00:01:51;0.70;99.90
18950;DHT22;9608;49.288;8.130;2023-03-01T00:04:19;0.80;99.90
18950;DHT22;9608;49.288;8.130;2023-03-01T00:06:46;0.70;99.90
18950;DHT22;9608;49.288;8.130;2023-03-01T00:09:13;0.70;99.90
18950;DHT22;9608;49.288;8.130;2023-03-01T00:11:40;0.70;99.90
18950;DHT22;9608;49.288;8.130;2023-03-01T00:14:07;0.70;99.90
18950;DHT22;9608;49.288;8.130;2023-03-01T00:16:36;0.70;99.90
18950;DHT22;9608;49.288;8.130;2023-03-01T00:19:05;0.70;99.90
18950;DHT22;9608;49.288;8.130;2023-03-01T00:21:33;0.60;99.90
18950;DHT22;9608;49.288;8.130;2023-03-01T00:24:01;0.50;99.90
18950;DHT22;9608;49.288;8.130;2023-03-01T00:26:28;0.60;99.90
18950;DHT22;9608;49.288;8.130;2023-03-01T00:28:56;0.60;99.90
18950;DHT22;9608;49.288;8.130;2023-03-01T00:31:25;0.60;99.90
18950;DHT22;9608;49.288;8.130;2023-03-01T00:33:54;0.60;99.90
18950;DHT22;9608;49.288;8.130;2023-03-01T00:36:23;0.60;99.90
18950;DHT22;9608;49.288;8.130;2023-03-01T00:38:51;0.50;99.90
18950;DHT22;9608;49.288;8.130;2023-03-01T00:41:19;0.50;99.90
18950;DHT22;9608;49.288;8.130;2023-03-01T00:43:48;0.50;99.90
18950;DHT22;9608;49.288;8.130;2023-03-01T00:46:17;0.40;99.90
18950;DHT22;9608;49.288;8.130;2023-03-01T00:48:44;0.40;99.90
18950;DHT22;9608;49.288;8.130;2023-03-01T00:51:13;0.40;99.90
18950;DHT22;9608;49.288;8.130;2023-03-01T00:53:40;0.50;99.90
18950;DHT22;9608;49.288;8.130;2023-03-01T00:56:11;0.40;99.90
18950;DHT22;9608;49.288;8.130;2023-03-01T00:58:38;0.40;99.90
18950;DHT22;9608;49.288;8.130;2023-03-01T01:01:07;0.30;99.90
18950;DHT22;9608;49.288;8.130;2023-03-01T01:03:43;0.30;99.90
18950;DHT22;9608;49.288;8.130;2023-03-01T01:06:14;0.30;99.90
18950;DHT22;9608;49.288;8.130;2023-03-01T01:08:41;0.30;99.90
18950;DHT22;9608;49.288;8.130;2023-03-01T01:11:10;0.30;99.90
18950;DHT22;9608;49.288;8.130;2023-03-01T01:13:37;0.30;99.90
18950;DHT22;9608;49.288;8.130;2023-03-01T01:16:04;0.30;99.90
18950;DHT22;9608;49.288;8.130;2023-03-01T01:18:31;0.30;99.90
18950;DHT22;9608;49.288;8.130;2023-03-01T01:21:03;0.30;99.90
18950;DHT22;9608;49.288;8.130;2023-03-01T01:23:30;0.30;99.90
18950;DHT22;9608;49.288;8.130;2023-03-01T01:25:57;0.30;99.90
18950;DHT22;9608;49.288;8.130;2023-03-01T01:28:25;0.30;99.90
18950;DHT22;9608;49.288;8.130;2023-03-01T01:30:52;0.30;99.90
18950;DHT22;9608;49.288;8.130;2023-03-01T01:33:18;0.20;99.90
18950;DHT22;9608;49.288;8.130;2023-03-01T01:35:45;0.20;99.90
18950;DHT22;9608;49.288;8.130;2023-03-01T01:38:12;0.30;99.90
18950;DHT22;9608;49.288;8.130;2023-03-01T01:40:43;0.30;99.90
18950;DHT22;9608;49.288;8.130;2023-03-01T01:43:18;0.30;99.90
18950;DHT22;9608;49.288;8.130;2023-03-01T01:45:47;0.30;99.90
18950;DHT22;9608;49.288;8.130;2023-03-01T01:48:18;0.20;99.90
18950;DHT22;9608;49.288;8.130;2023-03-01T01:50:54;0.20;99.90
18950;DHT22;9608;49.288;8.130;2023-03-01T01:53:21;0.30;99.90
18950;DHT22;9608;49.288;8.130;2023-03-01T01:55:53;0.30;99.90
18950;DHT22;9608;49.288;8.130;2023-03-01T01:58:21;0.30;99.90
18950;DHT22;9608;49.288;8.130;2023-03-01T02:00:49;0.20;99.90
18950;DHT22;9608;49.288;8.130;2023-03-01T02:03:20;0.20;99.90
18950;DHT22;9608;49.288;8.130;2023-03-01T02:05:52;0.30;99.90
18950;DHT22;9608;49.288;8.130;2023-03-01T02:08:23;0.20;99.90
18950;DHT22;9608;49.288;8.130;2023-03-01T02:10:52;0.20;99.90
18950;DHT22;9608;49.288;8.130;2023-03-01T02:13:19;0.20;99.90
18950;DHT22;9608;49.288;8.130;2023-03-01T02:15:46;0.20;99.90
18950;DHT22;9608;49.288;8.130;2023-03-01T02:18:17;0.20;99.90
18950;DHT22;9608;49.288;8.130;2023-03-01T02:20:50;0.20;99.90
18950;DHT22;9608;49.288;8.130;2023-03-01T02:23:22;0.30;99.90
18950;DHT22;9608;49.288;8.130;2023-03-01T02:25:54;0.30;99.90
18950;DHT22;9608;49.288;8.130;2023-03-01T02:28:29;0.30;99.90
18950;DHT22;9608;49.288;8.130;2023-03-01T02:30:56;0.30;99.90
18950;DHT22;9608;49.288;8.130;2023-03-01T02:33:41;0.30;99.90
18950;DHT22;9608;49.288;8.130;2023-03-01T02:36:10;0.30;99.90
18950;DHT22;9608;49.288;8.130;2023-03-01T02:38:39;0.30;99.90
18950;DHT22;9608;49.288;8.130;2023-03-01T02:41:06;0.30;99.90
18950;DHT22;9608;49.288;8.130;2023-03-01T02:43:37;0.30;99.90
18950;DHT22;9608;49.288;8.130;2023-03-01T02:46:08;0.30;99.90
18950;DHT22;9608;49.288;8.130;2023-03-01T02:48:42;0.30;99.90
18950;DHT22;9608;49.288;8.130;2023-03-01T02:51:20;0.30;99.90
18950;DHT22;9608;49.288;8.130;2023-03-01T02:53:56;0.20;99.90
18950;DHT22;9608;49.288;8.130;2023-03-01T02:56:25;0.30;99.90
18950;DHT22;9608;49.288;8.130;2023-03-01T02:58:54;0.30;99.90
18950;DHT22;9608;49.288;8.130;2023-03-01T03:01:21;0.30;99.90
18950;DHT22;9608;49.288;8.130;2023-03-01T03:03:47;0.30;99.90
18950;DHT22;9608;49.288;8.130;2023-03-01T03:06:14;0.30;99.90
18950;DHT22;9608;49.288;8.130;2023-03-01T03:08:40;0.30;99.90
18950;DHT22;9608;49.288;8.130;2023-03-01T03:11:07;0.30;99.90
18950;DHT22;9608;49.288;8.130;2023-03-01T03:13:34;0.30;99.90
18950;DHT22;9608;49.288;8.130;2023-03-01T03:16:02;0.30;99.90
18950;DHT22;9608;49.288;8.130;2023-03-01T03:18:30;0.20;99.90
18950;DHT22;9608;49.288;8.130;2023-03-01T03:20:56;0.20;99.90
18950;DHT22;9608;49.288;8.130;2023-03-01T03:23:23;0.20;99.90
18950;DHT22;9608;49.288;8.130;2023-03-01T03:25:51;0.30;99.90
18950;DHT22;9608;49.288;8.130;2023-03-01T03:28:17;0.30;99.90
18950;DHT22;9608;49.288;8.130;2023-03-01T03:30:45;0.30;99.90
18950;DHT22;9608;49.288;8.130;2023-03-01T03:33:13;0.30;99.90
18950;DHT22;9608;49.288;8.130;2023-03-01T03:35:42;0.30;99.90
18950;DHT22;9608;49.288;8.130;2023-03-01T03:38:10;0.20;99.90
18950;DHT22;9608;49.288;8.130;2023-03-01T03:40:43;0.20;99.90
18950;DHT22;9608;49.288;8.130;2023-03-01T03:43:12;0.10;99.90
18950;DHT22;9608;49.288;8.130;2023-03-01T03:45:40;0.10;99.90
18950;DHT22;9608;49.288;8.130;2023-03-01T03:48:08;0.10;99.90
18950;DHT22;9608;49.288;8.130;2023-03-01T03:50:37;0.10;99.90
18950;DHT22;9608;49.288;8.130;2023-03-01T03:53:05;0.00;99.90
18950;DHT22;9608;49.288;8.130;2023-03-01T03:55:32;0.00;99.90
18950;DHT22;9608;49.288;8.130;2023-03-01T03:58:02;0.00;99.90
18950;DHT22;9608;49.288;8.130;2023-03-01T04:00:33;0.00;99.90
18950;DHT22;9608;49.288;8.130;2023-03-01T04:03:00;0.00;99.90
18950;DHT22;9608;49.288;8.130;2023-03-01T04:05:27;0.00;99.90
18950;DHT22;9608;49.288;8.130;2023-03-01T04:07:55;-0.10;99.90
18950;DHT22;9608;49.288;8.130;2023-03-01T04:10:34;0.00;99.90
18950;DHT22;9608;49.288;8.130;2023-03-01T04:13:01;0.10;99.90
18950;DHT22;9608;49.288;8.130;2023-03-01T04:15:28;0.00;99.90
18950;DHT22;9608;49.288;8.130;2023-03-01T04:17:55;0.00;99.90
18950;DHT22;9608;49.288;8.130;2023-03-01T04:20:26;0.00;99.90
18950;DHT22;9608;49.288;8.130;2023-03-01T04:22:59;0.00;99.90
18950;DHT22;9608;49.288;8.130;2023-03-01T04:25:33;0.00;99.90
18950;DHT22;9608;49.288;8.130;2023-03-01T04:28:00;0.10;99.90
18950;DHT22;9608;49.288;8.130;2023-03-01T04:30:27;0.00;99.90
18950;DHT22;9608;49.288;8.130;2023-03-01T04:32:53;0.00;99.90
18950;DHT22;9608;49.288;8.130;2023-03-01T04:35:20;0.00;99.90
18950;DHT22;9608;49.288;8.130;2023-03-01T04:37:47;0.00;99.90
18950;DHT22;9608;49.288;8.130;2023-03-01T04:40:18;0.00;99.90
18950;DHT22;9608;49.288;8.130;2023-03-01T04:42:46;0.00;99.90
18950;DHT22;9608;49.288;8.130;2023-03-01T04:45:13;-0.10;99.90
18950;DHT22;9608;49.288;8.130;2023-03-01T04:47:40;-0.10;99.90
18950;DHT22;9608;49.288;8.130;2023-03-01T04:50:09;-0.10;99.90
18950;DHT22;9608;49.288;8.130;2023-03-01T04:52:36;-0.10;99.90
18950;DHT22;9608;49.288;8.130;2023-03-01T04:55:03;-0.10;99.90
18950;DHT22;9608;49.288;8.130;2023-03-01T04:57:32;-0.10;99.90
18950;DHT22;9608;49.288;8.130;2023-03-01T04:59:59;-0.10;99.90
18950;DHT22;9608;49.288;8.130;2023-03-01T05:02:26;-0.10;99.90
18950;DHT22;9608;49.288;8.130;2023-03-01T05:04:52;-0.20;99.90
18950;DHT22;9608;49.288;8.130;2023-03-01T05:07:23;-0.10;99.90
18950;DHT22;9608;49.288;8.130;2023-03-01T05:09:50;-0.20;99.90
18950;DHT22;9608;49.288;8.130;2023-03-01T05:12:16;-0.20;99.90
18950;DHT22;9608;49.288;8.130;2023-03-01T05:14:44;-0.10;99.90
18950;DHT22;9608;49.288;8.130;2023-03-01T05:17:11;-0.10;99.90
18950;DHT22;9608;49.288;8.130;2023-03-01T05:19:38;-0.10;99.90
18950;DHT22;9608;49.288;8.130;2023-03-01T05:22:08;-0.20;99.90
18950;DHT22;9608;49.288;8.130;2023-03-01T05:24:35;-0.20;99.90
18950;DHT22;9608;49.288;8.130;2023-03-01T05:27:03;-0.20;99.90
18950;DHT22;9608;49.288;8.130;2023-03-01T05:29:31;-0.20;99.90
18950;DHT22;9608;49.288;8.130;2023-03-01T05:32:02;-0.20;99.90
18950;DHT22;9608;49.288;8.130;2023-03-01T05:34:30;-0.20;99.90
18950;DHT22;9608;49.288;8.130;2023-03-01T05:36:57;-0.20;99.90
18950;DHT22;9608;49.288;8.130;2023-03-01T05:39:26;-0.20;99.90
18950;DHT22;9608;49.288;8.130;2023-03-01T05:41:54;-0.20;99.90
18950;DHT22;9608;49.288;8.130;2023-03-01T05:44:21;-0.10;99.90
18950;DHT22;9608;49.288;8.130;2023-03-01T05:46:48;-0.10;99.90
18950;DHT22;9608;49.288;8.130;2023-03-01T05:49:17;-0.10;99.90
18950;DHT22;9608;49.288;8.130;2023-03-01T05:51:48;-0.10;99.90
18950;DHT22;9608;49.288;8.130;2023-03-01T05:54:15;-0.10;99.90
18950;DHT22;9608;49.288;8.130;2023-03-01T05:56:43;-0.10;99.90
18950;DHT22;9608;49.288;8.130;2023-03-01T05:59:10;-0.50;99.90
18950;DHT22;9608;49.288;8.130;2023-03-01T06:01:37;-0.70;99.90
18950;DHT22;9608;49.288;8.130;2023-03-01T06:04:04;-0.80;99.90
18950;DHT22;9608;49.288;8.130;2023-03-01T06:06:35;-0.70;99.90
18950;DHT22;9608;49.288;8.130;2023-03-01T06:09:03;-0.80;99.90
18950;DHT22;9608;49.288;8.130;2023-03-01T06:11:29;-0.80;99.90
18950;DHT22;9608;49.288;8.130;2023-03-01T06:13:56;-0.80;99.90
18950;DHT22;9608;49.288;8.130;2023-03-01T06:16:22;-0.90;99.90
18950;DHT22;9608;49.288;8.130;2023-03-01T06:18:49;-0.80;99.90
18950;DHT22;9608;49.288;8.130;2023-03-01T06:21:16;-0.70;99.90
18950;DHT22;9608;49.288;8.130;2023-03-01T06:23:44;-0.60;99.90
18950;DHT22;9608;49.288;8.130;2023-03-01T06:26:10;-0.60;99.90
18950;DHT22;9608;49.288;8.130;2023-03-01T06:28:37;-0.60;99.90
18950;DHT22;9608;49.288;8.130;2023-03-01T06:31:04;-0.70;99.90
18950;DHT22;9608;49.288;8.130;2023-03-01T06:33:33;-0.60;99.90
18950;DHT22;9608;49.288;8.130;2023-03-01T06:36:01;-0.60;99.90
18950;DHT22;9608;49.288;8.130;2023-03-01T06:38:28;-0.40;99.90
18950;DHT22;9608;49.288;8.130;2023-03-01T06:40:56;-0.40;99.90
18950;DHT22;9608;49.288;8.130;2023-03-01T06:43:23;-0.30;99.90
18950;DHT22;9608;49.288;8.130;2023-03-01T06:45:50;-0.30;99.90
18950;DHT22;9608;49.288;8.130;2023-03-01T06:48:17;-0.30;99.90
18950;DHT22;9608;49.288;8.130;2023-03-01T06:50:44;-0.20;99.90
18950;DHT22;9608;49.288;8.130;2023-03-01T06:53:10;-0.10;99.90
18950;DHT22;9608;49.288;8.130;2023-03-01T06:55:37;-0.10;99.90
18950;DHT22;9608;49.288;8.130;2023-03-01T06:58:09;0.00;99.90
18950;DHT22;9608;49.288;8.130;2023-03-01T07:00:38;0.20;99.90
18950;DHT22;9608;49.288;8.130;2023-03-01T07:03:06;0.20;99.90
18950;DHT22;9608;49.288;8.130;2023-03-01T07:05:33;0.30;99.90
18950;DHT22;9608;49.288;8.130;2023-03-01T07:08:02;0.30;99.90
18950;DHT22;9608;49.288;8.130;2023-03-01T07:10:29;0.40;99.90
18950;DHT22;9608;49.288;8.130;2023-03-01T07:12:57;0.50;99.90
18950;DHT22;9608;49.288;8.130;2023-03-01T07:15:26;0.60;99.90
18950;DHT22;9608;49.288;8.130;2023-03-01T07:17:53;0.60;99.90
18950;DHT22;9608;49.288;8.130;2023-03-01T07:21:04;0.70;99.90
18950;DHT22;9608;49.288;8.130;2023-03-01T07:23:36;0.80;99.90
18950;DHT22;9608;49.288;8.130;2023-03-01T07:26:03;0.90;99.90
18950;DHT22;9608;49.288;8.130;2023-03-01T07:28:31;0.90;99.90
18950;DHT22;9608;49.288;8.130;2023-03-01T07:31:05;1.00;99.90
18950;DHT22;9608;49.288;8.130;2023-03-01T07:33:35;0.90;99.90
18950;DHT22;9608;49.288;8.130;2023-03-01T07:36:06;1.10;99.90
18950;DHT22;9608;49.288;8.130;2023-03-01T07:38:36;1.10;99.90
18950;DHT22;9608;49.288;8.130;2023-03-01T07:41:04;1.20;99.90
18950;DHT22;9608;49.288;8.130;2023-03-01T07:43:33;1.30;99.90
18950;DHT22;9608;49.288;8.130;2023-03-01T07:46:06;1.40;99.90
18950;DHT22;9608;49.288;8.130;2023-03-01T07:48:34;1.40;99.90
18950;DHT22;9608;49.288;8.130;2023-03-01T07:51:06;1.30;99.90
18950;DHT22;9608;49.288;8.130;2023-03-01T07:53:35;1.20;99.90
18950;DHT22;9608;49.288;8.130;2023-03-01T07:56:06;1.10;99.90
18950;DHT22;9608;49.288;8.130;2023-03-01T07:58:34;1.20;99.90
18950;DHT22;9608;49.288;8.130;2023-03-01T08:01:06;1.20;99.90
18950;DHT22;9608;49.288;8.130;2023-03-01T08:03:35;1.20;99.90
18950;DHT22;9608;49.288;8.130;2023-03-01T08:06:04;1.20;99.90
18950;DHT22;9608;49.288;8.130;2023-03-01T08:08:32;1.20;99.90
18950;DHT22;9608;49.288;8.130;2023-03-01T08:11:00;1.30;99.90
18950;DHT22;9608;49.288;8.130;2023-03-01T08:13:28;1.30;99.90
18950;DHT22;9608;49.288;8.130;2023-03-01T08:16:00;1.40;99.90
18950;DHT22;9608;49.288;8.130;2023-03-01T08:18:36;1.30;99.90
18950;DHT22;9608;49.288;8.130;2023-03-01T08:21:05;1.40;99.90
18950;DHT22;9608;49.288;8.130;2023-03-01T08:23:33;1.40;99.90
18950;DHT22;9608;49.288;8.130;2023-03-01T08:26:05;1.50;99.90
18950;DHT22;9608;49.288;8.130;2023-03-01T08:28:34;1.50;99.90
18950;DHT22;9608;49.288;8.130;2023-03-01T08:31:12;1.40;99.90
18950;DHT22;9608;49.288;8.130;2023-03-01T08:33:41;1.60;99.90
18950;DHT22;9608;49.288;8.130;2023-03-01T08:36:09;1.60;99.90
18950;DHT22;9608;49.288;8.130;2023-03-01T08:38:36;1.50;99.90
18950;DHT22;9608;49.288;8.130;2023-03-01T08:41:04;1.60;99.90
18950;DHT22;9608;49.288;8.130;2023-03-01T08:43:31;1.80;99.90
18950;DHT22;9608;49.288;8.130;2023-03-01T08:45:58;1.90;99.90
18950;DHT22;9608;49.288;8.130;2023-03-01T08:48:25;1.90;99.90
18950;DHT22;9608;49.288;8.130;2023-03-01T08:50:53;1.80;99.90
18950;DHT22;9608;49.288;8.130;2023-03-01T08:53:21;1.90;99.90
18950;DHT22;9608;49.288;8.130;2023-03-01T08:55:48;2.10;99.90
18950;DHT22;9608;49.288;8.130;2023-03-01T08:58:15;2.20;99.90
18950;DHT22;9608;49.288;8.130;2023-03-01T09:00:42;2.30;99.90
18950;DHT22;9608;49.288;8.130;2023-03-01T09:03:10;2.20;99.90
18950;DHT22;9608;49.288;8.130;2023-03-01T09:05:40;2.20;99.90
18950;DHT22;9608;49.288;8.130;2023-03-01T09:08:10;2.20;99.90
18950;DHT22;9608;49.288;8.130;2023-03-01T09:10:38;2.20;99.90
18950;DHT22;9608;49.288;8.130;2023-03-01T09:13:06;2.30;99.90
18950;DHT22;9608;49.288;8.130;2023-03-01T09:15:33;2.40;99.90
18950;DHT22;9608;49.288;8.130;2023-03-01T09:18:03;2.30;99.90
18950;DHT22;9608;49.288;8.130;2023-03-01T09:20:32;2.50;99.90
18950;DHT22;9608;49.288;8.130;2023-03-01T09:22:59;2.60;99.90
18950;DHT22;9608;49.288;8.130;2023-03-01T09:25:28;2.70;99.90
18950;DHT22;9608;49.288;8.130;2023-03-01T09:27:57;2.80;99.90
18950;DHT22;9608;49.288;8.130;2023-03-01T09:30:25;2.90;99.90
18950;DHT22;9608;49.288;8.130;2023-03-01T09:32:52;2.90;99.90
18950;DHT22;9608;49.288;8.130;2023-03-01T09:35:19;3.00;99.90
18950;DHT22;9608;49.288;8.130;2023-03-01T09:37:48;3.10;99.90
18950;DHT22;9608;49.288;8.130;2023-03-01T09:40:19;3.00;99.90
18950;DHT22;9608;49.288;8.130;2023-03-01T09:42:53;2.90;99.90
18950;DHT22;9608;49.288;8.130;2023-03-01T09:45:27;2.90;99.90
18950;DHT22;9608;49.288;8.130;2023-03-01T09:47:57;3.10;99.90
18950;DHT22;9608;49.288;8.130;2023-03-01T09:50:32;3.00;99.90
18950;DHT22;9608;49.288;8.130;2023-03-01T09:53:03;3.20;99.90
18950;DHT22;9608;49.288;8.130;2023-03-01T09:55:54;3.30;99.90
18950;DHT22;9608;49.288;8.130;2023-03-01T09:58:44;3.40;99.90
18950;DHT22;9608;49.288;8.130;2023-03-01T10:01:30;3.60;99.90
18950;DHT22;9608;49.288;8.130;2023-03-01T10:04:11;3.70;99.90
18950;DHT22;9608;49.288;8.130;2023-03-01T10:09:12;3.70;99.90
18950;DHT22;9608;49.288;8.130;2023-03-01T10:11:43;3.70;99.90
18950;DHT22;9608;49.288;8.130;2023-03-01T10:14:23;3.70;99.90
18950;DHT22;9608;49.288;8.130;2023-03-01T10:16:56;3.80;99.90
18950;DHT22;9608;49.288;8.130;2023-03-01T10:19:32;3.80;99.90
18950;DHT22;9608;49.288;8.130;2023-03-01T10:22:03;3.90;99.90
18950;DHT22;9608;49.288;8.130;2023-03-01T10:24:34;3.70;99.90
18950;DHT22;9608;49.288;8.130;2023-03-01T10:27:05;3.80;99.90
18950;DHT22;9608;49.288;8.130;2023-03-01T10:29:40;3.80;99.90
18950;DHT22;9608;49.288;8.130;2023-03-01T10:32:10;4.00;99.90
18950;DHT22;9608;49.288;8.130;2023-03-01T10:34:37;4.10;99.90
18950;DHT22;9608;49.288;8.130;2023-03-01T10:37:10;4.00;99.90
18950;DHT22;9608;49.288;8.130;2023-03-01T10:39:55;4.00;99.90
18950;DHT22;9608;49.288;8.130;2023-03-01T10:42:26;4.00;99.90
18950;DHT22;9608;49.288;8.130;2023-03-01T10:44:56;4.00;99.90
18950;DHT22;9608;49.288;8.130;2023-03-01T10:47:26;3.90;99.90
18950;DHT22;9608;49.288;8.130;2023-03-01T10:50:04;4.00;99.90
18950;DHT22;9608;49.288;8.130;2023-03-01T10:52:40;4.10;99.90
18950;DHT22;9608;49.288;8.130;2023-03-01T10:55:24;4.10;99.90
18950;DHT22;9608;49.288;8.130;2023-03-01T10:58:07;4.20;99.90
18950;DHT22;9608;49.288;8.130;2023-03-01T11:00:46;4.30;99.90
18950;DHT22;9608;49.288;8.130;2023-03-01T11:03:15;4.60;99.90
18950;DHT22;9608;49.288;8.130;2023-03-01T11:05:56;4.60;99.90
18950;DHT22;9608;49.288;8.130;2023-03-01T11:08:41;4.70;99.90
18950;DHT22;9608;49.288;8.130;2023-03-01T11:11:31;4.70;99.90
18950;DHT22;9608;49.288;8.130;2023-03-01T11:14:00;4.60;99.90
18950;DHT22;9608;49.288;8.130;2023-03-01T11:16:32;4.70;99.90
18950;DHT22;9608;49.288;8.130;2023-03-01T11:19:16;4.90;99.90
18950;DHT22;9608;49.288;8.130;2023-03-01T11:21:49;4.90;99.90
18950;DHT22;9608;49.288;8.130;2023-03-01T11:24:39;5.00;99.90
18950;DHT22;9608;49.288;8.130;2023-03-01T11:27:16;4.90;99.90
18950;DHT22;9608;49.288;8.130;2023-03-01T11:29:46;5.00;99.90
18950;DHT22;9608;49.288;8.130;2023-03-01T11:32:20;5.00;99.90
18950;DHT22;9608;49.288;8.130;2023-03-01T11:34:53;5.00;99.90
18950;DHT22;9608;49.288;8.130;2023-03-01T11:37:32;5.00;99.90
18950;DHT22;9608;49.288;8.130;2023-03-01T11:40:10;5.10;99.90
18950;DHT22;9608;49.288;8.130;2023-03-01T11:42:47;5.20;99.90
18950;DHT22;9608;49.288;8.130;2023-03-01T11:45:14;5.20;99.90
18950;DHT22;9608;49.288;8.130;2023-03-01T11:47:55;5.10;99.90
18950;DHT22;9608;49.288;8.130;2023-03-01T11:50:30;5.30;99.90
18950;DHT22;9608;49.288;8.130;2023-03-01T11:53:16;5.40;99.90
18950;DHT22;9608;49.288;8.130;2023-03-01T11:55:59;5.40;99.90
18950;DHT22;9608;49.288;8.130;2023-03-01T11:58:53;5.30;99.90
18950;DHT22;9608;49.288;8.130;2023-03-01T12:01:32;5.60;99.90
18950;DHT22;9608;49.288;8.130;2023-03-01T12:04:27;5.60;99.90
18950;DHT22;9608;49.288;8.130;2023-03-01T12:06:57;5.60;99.90
18950;DHT22;9608;49.288;8.130;2023-03-01T12:09:39;5.50;99.90
18950;DHT22;9608;49.288;8.130;2023-03-01T12:18:38;5.50;99.90
18950;DHT22;9608;49.288;8.130;2023-03-01T12:21:20;5.60;99.90
18950;DHT22;9608;49.288;8.130;2023-03-01T12:24:19;5.80;99.90
18950;DHT22;9608;49.288;8.130;2023-03-01T12:26:57;5.80;99.90
18950;DHT22;9608;49.288;8.130;2023-03-01T12:29:29;6.00;99.90
18950;DHT22;9608;49.288;8.130;2023-03-01T12:32:12;6.00;99.90
18950;DHT22;9608;49.288;8.130;2023-03-01T12:34:52;5.90;99.90
18950;DHT22;9608;49.288;8.130;2023-03-01T12:37:34;5.90;99.90
18950;DHT22;9608;49.288;8.130;2023-03-01T12:40:16;6.10;99.90
18950;DHT22;9608;49.288;8.130;2023-03-01T12:42:54;6.40;99.90
18950;DHT22;9608;49.288;8.130;2023-03-01T12:45:39;6.10;99.90
18950;DHT22;9608;49.288;8.130;2023-03-01T12:48:24;6.20;99.90
18950;DHT22;9608;49.288;8.130;2023-03-01T12:50:53;6.20;99.90
18950;DHT22;9608;49.288;8.130;2023-03-01T12:53:25;6.30;99.90
18950;DHT22;9608;49.288;8.130;2023-03-01T12:55:54;6.40;99.90
18950;DHT22;9608;49.288;8.130;2023-03-01T12:58:26;6.30;99.90
18950;DHT22;9608;49.288;8.130;2023-03-01T13:01:05;6.30;99.90
18950;DHT22;9608;49.288;8.130;2023-03-01T13:03:47;6.20;99.90
18950;DHT22;9608;49.288;8.130;2023-03-01T13:06:21;6.30;99.90
18950;DHT22;9608;49.288;8.130;2023-03-01T13:08:58;6.40;99.90
18950;DHT22;9608;49.288;8.130;2023-03-01T13:11:25;6.40;99.90
18950;DHT22;9608;49.288;8.130;2023-03-01T13:16:58;6.50;99.90
18950;DHT22;9608;49.288;8.130;2023-03-01T13:19:26;6.50;99.90
18950;DHT22;9608;49.288;8.130;2023-03-01T13:21:55;6.60;99.90
18950;DHT22;9608;49.288;8.130;2023-03-01T13:24:28;6.60;99.90
18950;DHT22;9608;49.288;8.130;2023-03-01T13:27:22;6.70;99.90
18950;DHT22;9608;49.288;8.130;2023-03-01T13:29:51;6.70;99.90
18950;DHT22;9608;49.288;8.130;2023-03-01T13:32:22;6.60;99.90
18950;DHT22;9608;49.288;8.130;2023-03-01T13:34:51;6.70;99.90
18950;DHT22;9608;49.288;8.130;2023-03-01T13:37:30;6.70;99.90
18950;DHT22;9608;49.288;8.130;2023-03-01T13:40:02;6.60;99.90
18950;DHT22;9608;49.288;8.130;2023-03-01T13:42:48;6.70;99.90
18950;DHT22;9608;49.288;8.130;2023-03-01T13:45:20;6.80;99.90
18950;DHT22;9608;49.288;8.130;2023-03-01T13:47:52;7.00;99.90
18950;DHT22;9608;49.288;8.130;2023-03-01T13:50:21;7.10;99.90
18950;DHT22;9608;49.288;8.130;2023-03-01T13:52:52;7.10;99.90
18950;DHT22;9608;49.288;8.130;2023-03-01T13:55:24;6.90;99.90
18950;DHT22;9608;49.288;8.130;2023-03-01T13:57:55;6.90;99.90
18950;DHT22;9608;49.288;8.130;2023-03-01T14:00:34;6.90;99.90
18950;DHT22;9608;49.288;8.130;2023-03-01T14:03:03;7.10;99.90
18950;DHT22;9608;49.288;8.130;2023-03-01T14:05:30;7.00;99.90
18950;DHT22;9608;49.288;8.130;2023-03-01T14:07:57;7.00;99.90
18950;DHT22;9608;49.288;8.130;2023-03-01T14:10:31;6.90;99.90
18950;DHT22;9608;49.288;8.130;2023-03-01T14:13:12;7.10;99.90
18950;DHT22;9608;49.288;8.130;2023-03-01T14:15:50;7.00;99.90
18950;DHT22;9608;49.288;8.130;2023-03-01T14:18:28;7.20;99.90
18950;DHT22;9608;49.288;8.130;2023-03-01T14:20:55;7.10;99.90
18950;DHT22;9608;49.288;8.130;2023-03-01T14:23:23;7.10;99.90
18950;DHT22;9608;49.288;8.130;2023-03-01T14:25:55;7.10;99.90
18950;DHT22;9608;49.288;8.130;2023-03-01T14:28:24;7.20;99.90
18950;DHT22;9608;49.288;8.130;2023-03-01T14:30:53;7.20;99.90
18950;DHT22;9608;49.288;8.130;2023-03-01T14:33:23;7.20;99.90
18950;DHT22;9608;49.288;8.130;2023-03-01T14:35:58;7.20;99.90
18950;DHT22;9608;49.288;8.130;2023-03-01T14:38:31;7.30;99.90
18950;DHT22;9608;49.288;8.130;2023-03-01T14:41:02;7.30;99.90
18950;DHT22;9608;49.288;8.130;2023-03-01T14:43:30;7.30;99.90
18950;DHT22;9608;49.288;8.130;2023-03-01T14:45:58;7.20;99.90
18950;DHT22;9608;49.288;8.130;2023-03-01T14:48:26;7.30;99.90
18950;DHT22;9608;49.288;8.130;2023-03-01T14:50:53;7.30;99.90
18950;DHT22;9608;49.288;8.130;2023-03-01T14:53:22;7.40;99.90
18950;DHT22;9608;49.288;8.130;2023-03-01T14:55:52;7.50;99.90
18950;DHT22;9608;49.288;8.130;2023-03-01T14:58:23;7.50;99.90
18950;DHT22;9608;49.288;8.130;2023-03-01T15:00:53;7.40;99.90
18950;DHT22;9608;49.288;8.130;2023-03-01T15:03:26;7.40;99.90
18950;DHT22;9608;49.288;8.130;2023-03-01T15:05:54;7.40;99.90
18950;DHT22;9608;49.288;8.130;2023-03-01T15:08:23;7.40;99.90
18950;DHT22;9608;49.288;8.130;2023-03-01T15:10:59;7.30;99.90
18950;DHT22;9608;49.288;8.130;2023-03-01T15:13:31;7.30;99.90
18950;DHT22;9608;49.288;8.130;2023-03-01T15:16:05;7.20;99.90
18950;DHT22;9608;49.288;8.130;2023-03-01T15:18:33;7.30;99.90
18950;DHT22;9608;49.288;8.130;2023-03-01T15:21:08;7.30;99.90
18950;DHT22;9608;49.288;8.130;2023-03-01T15:23:37;7.30;99.90
18950;DHT22;9608;49.288;8.130;2023-03-01T15:26:04;7.30;99.90
18950;DHT22;9608;49.288;8.130;2023-03-01T15:28:34;7.40;99.90
18950;DHT22;9608;49.288;8.130;2023-03-01T15:31:13;7.40;99.90
18950;DHT22;9608;49.288;8.130;2023-03-01T15:33:43;7.40;99.90
18950;DHT22;9608;49.288;8.130;2023-03-01T15:36:33;7.40;99.90
18950;DHT22;9608;49.288;8.130;2023-03-01T15:39:01;7.40;99.90
18950;DHT22;9608;49.288;8.130;2023-03-01T15:41:30;7.40;99.90
18950;DHT22;9608;49.288;8.130;2023-03-01T15:44:00;7.40;99.90
18950;DHT22;9608;49.288;8.130;2023-03-01T15:46:29;7.30;99.90
18950;DHT22;9608;49.288;8.130;2023-03-01T15:48:59;7.30;99.90
18950;DHT22;9608;49.288;8.130;2023-03-01T15:51:31;7.30;99.90
18950;DHT22;9608;49.288;8.130;2023-03-01T15:54:00;7.20;99.90
18950;DHT22;9608;49.288;8.130;2023-03-01T15:56:27;7.20;99.90
18950;DHT22;9608;49.288;8.130;2023-03-01T15:58:59;7.20;99.90
18950;DHT22;9608;49.288;8.130;2023-03-01T16:01:27;7.30;99.90
18950;DHT22;9608;49.288;8.130;2023-03-01T16:03:53;7.20;99.90
18950;DHT22;9608;49.288;8.130;2023-03-01T16:06:21;7.20;99.90
18950;DHT22;9608;49.288;8.130;2023-03-01T16:08:48;7.20;99.90
18950;DHT22;9608;49.288;8.130;2023-03-01T16:11:17;7.20;99.90
18950;DHT22;9608;49.288;8.130;2023-03-01T16:13:44;7.10;99.90
18950;DHT22;9608;49.288;8.130;2023-03-01T16:16:14;7.10;99.90
18950;DHT22;9608;49.288;8.130;2023-03-01T16:18:42;7.10;99.90
18950;DHT22;9608;49.288;8.130;2023-03-01T16:21:17;7.00;99.90
18950;DHT22;9608;49.288;8.130;2023-03-01T16:23:45;6.90;99.90
18950;DHT22;9608;49.288;8.130;2023-03-01T16:26:12;6.90;99.90
18950;DHT22;9608;49.288;8.130;2023-03-01T16:28:39;6.80;99.90
18950;DHT22;9608;49.288;8.130;2023-03-01T16:31:06;6.80;99.90
18950;DHT22;9608;49.288;8.130;2023-03-01T16:33:34;6.80;99.90
18950;DHT22;9608;49.288;8.130;2023-03-01T16:36:01;6.80;99.90